AUA968 ESSA-LOWW
Flight info
| Callsign | AUA968 |
|---|---|
| Flight time | 1h 48m |
| Altitude | 37000 |
| Route | BABAP T316 NEPVA DCT GOTAL DCT PENOR DCT BEZMI DCT ATMIR DCT DESEN/N0453F380 DCT MIKOV MIKOV8W |
| Aircraft | A320/M-SDE3FGHIRWY/LB1 |
Departure
| Time | 2026-04-21 10:41 |
|---|---|
| Airport | Stockholm-Arlanda Airport (ESSA) |
Arrival
| Time | 2026-04-21 12:29 |
|---|---|
| Airport | Vienna International Airport (LOWW) |
| Time | Latitude | Longitude | Altitude | Speed | Heading |
|---|---|---|---|---|---|
| 2026-04-21 10:09 | 59.64430 | 17.92692 | 138 ft | 0 kts | 52° |
| 2026-04-21 10:32 | 59.64422 | 17.92672 | 138 ft | 2 kts | 52° |
| 2026-04-21 10:32 | 59.64412 | 17.92646 | 138 ft | 2 kts | 52° |
| 2026-04-21 10:32 | 59.64401 | 17.92620 | 138 ft | 2 kts | 52° |
| 2026-04-21 10:32 | 59.64391 | 17.92593 | 138 ft | 2 kts | 52° |
| 2026-04-21 10:33 | 59.64381 | 17.92567 | 138 ft | 3 kts | 44° |
| 2026-04-21 10:33 | 59.64366 | 17.92547 | 138 ft | 3 kts | 7° |
| 2026-04-21 10:33 | 59.64348 | 17.92547 | 138 ft | 2 kts | 358° |
| 2026-04-21 10:33 | 59.64331 | 17.92548 | 138 ft | 2 kts | 358° |
| 2026-04-21 10:34 | 59.64314 | 17.92549 | 138 ft | 2 kts | 358° |
| 2026-04-21 10:34 | 59.64297 | 17.92551 | 138 ft | 2 kts | 351° |
| 2026-04-21 10:34 | 59.64280 | 17.92557 | 138 ft | 3 kts | 330° |
| 2026-04-21 10:34 | 59.64266 | 17.92580 | 138 ft | 2 kts | 295° |
| 2026-04-21 10:35 | 59.64266 | 17.92582 | 138 ft | 0 kts | 295° |
| 2026-04-21 10:36 | 59.64279 | 17.92528 | 138 ft | 8 kts | 296° |
| 2026-04-21 10:36 | 59.64311 | 17.92400 | 138 ft | 12 kts | 296° |
| 2026-04-21 10:36 | 59.64302 | 17.92244 | 138 ft | 12 kts | 238° |
| 2026-04-21 10:36 | 59.64303 | 17.92096 | 138 ft | 12 kts | 295° |
| 2026-04-21 10:37 | 59.64325 | 17.91937 | 138 ft | 13 kts | 254° |
| 2026-04-21 10:37 | 59.64254 | 17.91875 | 138 ft | 11 kts | 189° |
| 2026-04-21 10:37 | 59.64180 | 17.91852 | 138 ft | 10 kts | 189° |
| 2026-04-21 10:37 | 59.64112 | 17.91829 | 138 ft | 10 kts | 191° |
| 2026-04-21 10:38 | 59.64050 | 17.91802 | 138 ft | 9 kts | 193° |
| 2026-04-21 10:38 | 59.63992 | 17.91780 | 138 ft | 8 kts | 191° |
| 2026-04-21 10:38 | 59.63940 | 17.91761 | 138 ft | 7 kts | 191° |
| 2026-04-21 10:38 | 59.63894 | 17.91743 | 138 ft | 6 kts | 192° |
| 2026-04-21 10:39 | 59.63855 | 17.91715 | 138 ft | 5 kts | 209° |
| 2026-04-21 10:39 | 59.63798 | 17.91632 | 139 ft | 15 kts | 219° |
| 2026-04-21 10:39 | 59.63731 | 17.91456 | 142 ft | 15 kts | 273° |
| 2026-04-21 10:39 | 59.63782 | 17.91342 | 146 ft | 12 kts | 345° |
| 2026-04-21 10:40 | 59.63874 | 17.91367 | 145 ft | 17 kts | 10° |
| 2026-04-21 10:40 | 59.64208 | 17.91470 | 142 ft | 86 kts | 9° |
| 2026-04-21 10:40 | 59.65014 | 17.91768 | 143 ft | 146 kts | 9° |
| 2026-04-21 10:40 | 59.66096 | 17.92147 | 629 ft | 159 kts | 7° |
| 2026-04-21 10:41 | 59.67201 | 17.92543 | 1395 ft | 166 kts | 11° |
| 2026-04-21 10:41 | 59.68408 | 17.92716 | 2004 ft | 185 kts | 350° |
| 2026-04-21 10:41 | 59.69523 | 17.91294 | 2635 ft | 205 kts | 307° |
| 2026-04-21 10:41 | 59.69889 | 17.88509 | 3576 ft | 219 kts | 269° |
| 2026-04-21 10:42 | 59.69654 | 17.85469 | 4446 ft | 224 kts | 262° |
| 2026-04-21 10:42 | 59.69342 | 17.82455 | 5319 ft | 228 kts | 261° |
| 2026-04-21 10:42 | 59.69006 | 17.79346 | 6167 ft | 232 kts | 261° |
| 2026-04-21 10:42 | 59.68593 | 17.76188 | 6891 ft | 245 kts | 256° |
| 2026-04-21 10:43 | 59.68060 | 17.72837 | 7318 ft | 269 kts | 255° |
| 2026-04-21 10:43 | 59.67400 | 17.69216 | 7861 ft | 289 kts | 244° |
| 2026-04-21 10:43 | 59.66167 | 17.66002 | 8696 ft | 298 kts | 222° |
| 2026-04-21 10:43 | 59.64401 | 17.63787 | 9624 ft | 303 kts | 200° |
| 2026-04-21 10:44 | 59.62370 | 17.62494 | 10532 ft | 307 kts | 195° |
| 2026-04-21 10:44 | 59.60244 | 17.61656 | 10920 ft | 327 kts | 181° |
| 2026-04-21 10:44 | 59.57912 | 17.62033 | 11295 ft | 343 kts | 163° |
| 2026-04-21 10:44 | 59.55685 | 17.63761 | 12004 ft | 345 kts | 146° |
| 2026-04-21 10:45 | 59.53792 | 17.66614 | 12799 ft | 343 kts | 130° |
| 2026-04-21 10:45 | 59.52382 | 17.70387 | 13616 ft | 341 kts | 115° |
| 2026-04-21 10:45 | 59.51245 | 17.74523 | 14417 ft | 345 kts | 114° |
| 2026-04-21 10:45 | 59.50316 | 17.78805 | 15136 ft | 344 kts | 103° |
| 2026-04-21 10:46 | 59.49797 | 17.83384 | 15863 ft | 343 kts | 95° |
| 2026-04-21 10:46 | 59.49418 | 17.88093 | 16626 ft | 347 kts | 95° |
| 2026-04-21 10:46 | 59.49031 | 17.92794 | 17346 ft | 350 kts | 96° |
| 2026-04-21 10:46 | 59.48633 | 17.97536 | 18069 ft | 353 kts | 96° |
| 2026-04-21 10:47 | 59.48231 | 18.02297 | 18767 ft | 357 kts | 96° |
| 2026-04-21 10:47 | 59.47820 | 18.07110 | 19387 ft | 360 kts | 96° |
| 2026-04-21 10:47 | 59.47401 | 18.11994 | 20012 ft | 363 kts | 96° |
| 2026-04-21 10:47 | 59.46977 | 18.16901 | 20647 ft | 366 kts | 96° |
| 2026-04-21 10:48 | 59.46547 | 18.21881 | 21284 ft | 369 kts | 96° |
| 2026-04-21 10:48 | 59.46118 | 18.26838 | 21905 ft | 372 kts | 96° |
| 2026-04-21 10:48 | 59.45682 | 18.31870 | 22532 ft | 374 kts | 96° |
| 2026-04-21 10:48 | 59.45242 | 18.36968 | 23144 ft | 378 kts | 96° |
| 2026-04-21 10:49 | 59.44798 | 18.42065 | 23719 ft | 381 kts | 96° |
| 2026-04-21 10:49 | 59.44342 | 18.47224 | 24229 ft | 383 kts | 97° |
| 2026-04-21 10:49 | 59.43881 | 18.52358 | 24702 ft | 386 kts | 97° |
| 2026-04-21 10:49 | 59.43411 | 18.57576 | 25186 ft | 387 kts | 97° |
| 2026-04-21 10:50 | 59.42938 | 18.62801 | 25660 ft | 390 kts | 98° |
| 2026-04-21 10:50 | 59.41990 | 18.67829 | 26094 ft | 400 kts | 118° |
| 2026-04-21 10:50 | 59.40058 | 18.71845 | 26520 ft | 414 kts | 141° |
| 2026-04-21 10:50 | 59.37414 | 18.74161 | 26944 ft | 428 kts | 163° |
| 2026-04-21 10:51 | 59.34402 | 18.74390 | 27360 ft | 442 kts | 186° |
| 2026-04-21 10:51 | 59.31494 | 18.72433 | 27765 ft | 452 kts | 207° |
| 2026-04-21 10:51 | 59.28802 | 18.69057 | 28158 ft | 456 kts | 211° |
| 2026-04-21 10:51 | 59.26182 | 18.65584 | 28553 ft | 459 kts | 214° |
| 2026-04-21 10:52 | 59.23552 | 18.62044 | 28938 ft | 460 kts | 206° |
| 2026-04-21 10:52 | 59.20619 | 18.59639 | 29313 ft | 455 kts | 192° |
| 2026-04-21 10:52 | 59.17516 | 18.58560 | 29649 ft | 452 kts | 180° |
| 2026-04-21 10:52 | 59.14374 | 18.58372 | 30024 ft | 450 kts | 174° |
| 2026-04-21 10:53 | 59.11277 | 18.58555 | 30382 ft | 451 kts | 173° |
| 2026-04-21 10:53 | 59.08135 | 18.58727 | 30667 ft | 454 kts | 175° |
| 2026-04-21 10:53 | 59.04959 | 18.58681 | 30934 ft | 457 kts | 177° |
| 2026-04-21 10:53 | 59.01764 | 18.58377 | 31200 ft | 460 kts | 179° |
| 2026-04-21 10:54 | 58.98553 | 18.57869 | 31460 ft | 463 kts | 181° |
| 2026-04-21 10:54 | 58.95330 | 18.57252 | 31705 ft | 465 kts | 181° |
| 2026-04-21 10:54 | 58.92146 | 18.56620 | 32035 ft | 464 kts | 181° |
| 2026-04-21 10:54 | 58.88885 | 18.56002 | 32395 ft | 463 kts | 181° |
| 2026-04-21 10:55 | 58.85717 | 18.55454 | 32720 ft | 462 kts | 180° |
| 2026-04-21 10:55 | 58.82511 | 18.54951 | 33042 ft | 462 kts | 180° |
| 2026-04-21 10:55 | 58.79305 | 18.54481 | 33373 ft | 462 kts | 180° |
| 2026-04-21 10:55 | 58.76113 | 18.54017 | 33704 ft | 461 kts | 180° |
| 2026-04-21 10:56 | 58.72900 | 18.53544 | 34057 ft | 461 kts | 180° |
| 2026-04-21 10:56 | 58.69727 | 18.53071 | 34382 ft | 460 kts | 180° |
| 2026-04-21 10:56 | 58.66533 | 18.52587 | 34657 ft | 460 kts | 180° |
| 2026-04-21 10:56 | 58.63341 | 18.52096 | 34930 ft | 460 kts | 181° |
| 2026-04-21 10:57 | 58.60137 | 18.51603 | 35195 ft | 461 kts | 181° |
| 2026-04-21 10:57 | 58.56939 | 18.51108 | 35448 ft | 461 kts | 181° |
| 2026-04-21 10:57 | 58.53732 | 18.50612 | 35690 ft | 461 kts | 181° |
| 2026-04-21 10:57 | 58.50537 | 18.50119 | 35938 ft | 461 kts | 181° |
| 2026-04-21 10:58 | 58.47363 | 18.49637 | 36183 ft | 461 kts | 181° |
| 2026-04-21 10:58 | 58.44151 | 18.49153 | 36411 ft | 462 kts | 181° |
| 2026-04-21 10:58 | 58.40950 | 18.48672 | 36634 ft | 462 kts | 181° |
| 2026-04-21 10:58 | 58.37729 | 18.48189 | 36854 ft | 462 kts | 181° |
| 2026-04-21 10:59 | 58.34557 | 18.47716 | 37072 ft | 462 kts | 181° |
| 2026-04-21 10:59 | 58.31316 | 18.47236 | 37283 ft | 463 kts | 181° |
| 2026-04-21 10:59 | 58.28133 | 18.46766 | 37367 ft | 463 kts | 181° |
| 2026-04-21 11:00 | 58.21758 | 18.44797 | 37375 ft | 466 kts | 194° |
| 2026-04-21 11:00 | 58.15513 | 18.41406 | 37374 ft | 466 kts | 193° |
| 2026-04-21 11:01 | 58.09267 | 18.38085 | 37374 ft | 466 kts | 193° |
| 2026-04-21 11:01 | 58.03049 | 18.34809 | 37377 ft | 466 kts | 193° |
| 2026-04-21 11:02 | 57.93654 | 18.29840 | 37377 ft | 467 kts | 193° |
| 2026-04-21 11:02 | 57.87376 | 18.26523 | 37375 ft | 467 kts | 193° |
| 2026-04-21 11:03 | 57.81151 | 18.23258 | 37376 ft | 467 kts | 193° |
| 2026-04-21 11:03 | 57.74869 | 18.19985 | 37368 ft | 468 kts | 193° |
| 2026-04-21 11:04 | 57.68594 | 18.16725 | 37366 ft | 468 kts | 193° |
| 2026-04-21 11:04 | 57.62337 | 18.13478 | 37367 ft | 468 kts | 193° |
| 2026-04-21 11:05 | 57.56077 | 18.10229 | 37374 ft | 468 kts | 193° |
| 2026-04-21 11:05 | 57.49793 | 18.06985 | 37379 ft | 468 kts | 193° |
| 2026-04-21 11:06 | 57.43506 | 18.03763 | 37382 ft | 469 kts | 193° |
| 2026-04-21 11:06 | 57.37200 | 18.00540 | 37387 ft | 469 kts | 193° |
| 2026-04-21 11:07 | 57.30943 | 17.97344 | 37394 ft | 469 kts | 194° |
| 2026-04-21 11:07 | 57.24645 | 17.94143 | 37390 ft | 469 kts | 194° |
| 2026-04-21 11:08 | 57.18339 | 17.90948 | 37393 ft | 469 kts | 194° |
| 2026-04-21 11:08 | 57.12056 | 17.87783 | 37392 ft | 470 kts | 193° |
| 2026-04-21 11:09 | 57.05731 | 17.84617 | 37390 ft | 470 kts | 193° |
| 2026-04-21 11:09 | 56.99448 | 17.81474 | 37389 ft | 470 kts | 194° |
| 2026-04-21 11:10 | 56.93136 | 17.78321 | 37392 ft | 470 kts | 194° |
| 2026-04-21 11:10 | 56.86846 | 17.75191 | 37391 ft | 470 kts | 194° |
| 2026-04-21 11:11 | 56.80526 | 17.72063 | 37392 ft | 470 kts | 194° |
| 2026-04-21 11:11 | 56.74203 | 17.68938 | 37391 ft | 470 kts | 194° |
| 2026-04-21 11:12 | 56.67875 | 17.65829 | 37397 ft | 470 kts | 194° |
| 2026-04-21 11:12 | 56.61599 | 17.62755 | 37392 ft | 470 kts | 194° |
| 2026-04-21 11:13 | 56.56345 | 17.60188 | 37393 ft | 470 kts | 194° |
| 2026-04-21 11:13 | 56.50011 | 17.57099 | 37392 ft | 470 kts | 194° |
| 2026-04-21 11:14 | 56.42666 | 17.53524 | 37394 ft | 470 kts | 194° |
| 2026-04-21 11:14 | 56.37406 | 17.50978 | 37389 ft | 470 kts | 194° |
| 2026-04-21 11:15 | 56.31068 | 17.47924 | 37392 ft | 470 kts | 194° |
| 2026-04-21 11:15 | 56.24770 | 17.44908 | 37387 ft | 470 kts | 194° |
| 2026-04-21 11:16 | 56.18428 | 17.41869 | 37389 ft | 470 kts | 194° |
| 2026-04-21 11:16 | 56.12143 | 17.38852 | 37385 ft | 470 kts | 194° |
| 2026-04-21 11:17 | 56.05803 | 17.35827 | 37387 ft | 470 kts | 194° |
| 2026-04-21 11:17 | 55.99471 | 17.32829 | 37384 ft | 470 kts | 194° |
| 2026-04-21 11:18 | 55.93165 | 17.29856 | 37381 ft | 470 kts | 194° |
| 2026-04-21 11:18 | 55.86832 | 17.26879 | 37381 ft | 470 kts | 194° |
| 2026-04-21 11:19 | 55.80521 | 17.23920 | 37382 ft | 470 kts | 194° |
| 2026-04-21 11:19 | 55.74174 | 17.20945 | 37380 ft | 470 kts | 194° |
| 2026-04-21 11:20 | 55.67875 | 17.18010 | 37377 ft | 470 kts | 193° |
| 2026-04-21 11:20 | 55.61442 | 17.16726 | 37374 ft | 466 kts | 175° |
| 2026-04-21 11:21 | 55.55001 | 17.17933 | 37374 ft | 465 kts | 171° |
| 2026-04-21 11:21 | 55.48570 | 17.19227 | 37368 ft | 465 kts | 172° |
| 2026-04-21 11:22 | 55.42156 | 17.20512 | 37370 ft | 465 kts | 172° |
| 2026-04-21 11:22 | 55.35718 | 17.21800 | 37370 ft | 465 kts | 172° |
| 2026-04-21 11:23 | 55.29268 | 17.23083 | 37373 ft | 466 kts | 172° |
| 2026-04-21 11:23 | 55.22850 | 17.24350 | 37372 ft | 466 kts | 172° |
| 2026-04-21 11:24 | 55.16394 | 17.25627 | 37377 ft | 466 kts | 172° |
| 2026-04-21 11:24 | 55.09928 | 17.26898 | 37373 ft | 466 kts | 172° |
| 2026-04-21 11:25 | 55.03509 | 17.28163 | 37340 ft | 465 kts | 170° |
| 2026-04-21 11:25 | 54.97067 | 17.29419 | 37373 ft | 465 kts | 170° |
| 2026-04-21 11:26 | 54.90646 | 17.30664 | 37373 ft | 464 kts | 170° |
| 2026-04-21 11:26 | 54.84250 | 17.31916 | 37374 ft | 463 kts | 170° |
| 2026-04-21 11:27 | 54.77827 | 17.33163 | 37368 ft | 463 kts | 170° |
| 2026-04-21 11:27 | 54.71411 | 17.34403 | 37354 ft | 463 kts | 170° |
| 2026-04-21 11:28 | 54.65047 | 17.35630 | 37359 ft | 463 kts | 170° |
| 2026-04-21 11:28 | 54.58636 | 17.36861 | 37355 ft | 463 kts | 170° |
| 2026-04-21 11:29 | 54.52218 | 17.38092 | 37346 ft | 462 kts | 170° |
| 2026-04-21 11:29 | 54.45854 | 17.39302 | 37339 ft | 462 kts | 170° |
| 2026-04-21 11:30 | 54.39449 | 17.40519 | 37346 ft | 462 kts | 171° |
| 2026-04-21 11:30 | 54.32997 | 17.40877 | 37330 ft | 464 kts | 175° |
| 2026-04-21 11:31 | 54.26538 | 17.41105 | 37322 ft | 463 kts | 175° |
| 2026-04-21 11:31 | 54.20111 | 17.41336 | 37320 ft | 463 kts | 175° |
| 2026-04-21 11:32 | 54.13692 | 17.41580 | 37318 ft | 463 kts | 175° |
| 2026-04-21 11:32 | 54.07246 | 17.41824 | 37314 ft | 464 kts | 175° |
| 2026-04-21 11:33 | 54.00787 | 17.42050 | 37307 ft | 463 kts | 175° |
| 2026-04-21 11:33 | 53.94320 | 17.42277 | 37301 ft | 463 kts | 175° |
| 2026-04-21 11:34 | 53.87862 | 17.42510 | 37298 ft | 463 kts | 175° |
| 2026-04-21 11:34 | 53.81463 | 17.42741 | 37297 ft | 463 kts | 175° |
| 2026-04-21 11:35 | 53.75010 | 17.42969 | 37296 ft | 463 kts | 175° |
| 2026-04-21 11:35 | 53.68561 | 17.43199 | 37295 ft | 464 kts | 175° |
| 2026-04-21 11:36 | 53.62113 | 17.43436 | 37290 ft | 464 kts | 175° |
| 2026-04-21 11:36 | 53.55642 | 17.43666 | 37289 ft | 463 kts | 175° |
| 2026-04-21 11:37 | 53.49223 | 17.43893 | 37288 ft | 463 kts | 175° |
| 2026-04-21 11:37 | 53.42752 | 17.44118 | 37283 ft | 463 kts | 175° |
| 2026-04-21 11:38 | 53.36337 | 17.44336 | 37283 ft | 463 kts | 175° |
| 2026-04-21 11:38 | 53.29884 | 17.44563 | 37277 ft | 463 kts | 175° |
| 2026-04-21 11:39 | 53.23428 | 17.44788 | 37270 ft | 463 kts | 175° |
| 2026-04-21 11:39 | 53.17001 | 17.45014 | 37272 ft | 463 kts | 176° |
| 2026-04-21 11:40 | 53.10544 | 17.45240 | 37263 ft | 463 kts | 176° |
| 2026-04-21 11:40 | 53.04119 | 17.45463 | 37254 ft | 464 kts | 176° |
| 2026-04-21 11:41 | 52.97641 | 17.45686 | 37256 ft | 464 kts | 176° |
| 2026-04-21 11:41 | 52.91211 | 17.45903 | 37260 ft | 464 kts | 176° |
| 2026-04-21 11:42 | 52.84738 | 17.46117 | 37261 ft | 464 kts | 176° |
| 2026-04-21 11:42 | 52.78283 | 17.46347 | 37260 ft | 464 kts | 176° |
| 2026-04-21 11:43 | 52.71830 | 17.46528 | 37263 ft | 464 kts | 176° |
| 2026-04-21 11:43 | 52.65397 | 17.46645 | 37258 ft | 464 kts | 177° |
| 2026-04-21 11:44 | 52.58913 | 17.46772 | 37267 ft | 464 kts | 176° |
| 2026-04-21 11:44 | 52.52452 | 17.46925 | 37255 ft | 464 kts | 176° |
| 2026-04-21 11:45 | 52.46024 | 17.47073 | 37255 ft | 464 kts | 177° |
| 2026-04-21 11:45 | 52.39549 | 17.47211 | 37252 ft | 464 kts | 177° |
| 2026-04-21 11:46 | 52.33086 | 17.47353 | 37255 ft | 464 kts | 177° |
| 2026-04-21 11:46 | 52.26647 | 17.47491 | 37255 ft | 464 kts | 177° |
| 2026-04-21 11:47 | 52.20187 | 17.47637 | 37251 ft | 464 kts | 177° |
| 2026-04-21 11:47 | 52.13734 | 17.47784 | 37249 ft | 464 kts | 177° |
| 2026-04-21 11:48 | 52.07262 | 17.47910 | 37248 ft | 465 kts | 177° |
| 2026-04-21 11:48 | 52.00773 | 17.48050 | 37246 ft | 464 kts | 177° |
| 2026-04-21 11:49 | 51.94309 | 17.48196 | 37244 ft | 464 kts | 177° |
| 2026-04-21 11:49 | 51.87863 | 17.48329 | 37240 ft | 464 kts | 178° |
| 2026-04-21 11:50 | 51.81385 | 17.48464 | 37237 ft | 464 kts | 178° |
| 2026-04-21 11:50 | 51.74950 | 17.48603 | 37236 ft | 464 kts | 178° |
| 2026-04-21 11:51 | 51.68500 | 17.48750 | 37235 ft | 464 kts | 178° |
| 2026-04-21 11:51 | 51.62062 | 17.48893 | 37229 ft | 464 kts | 178° |
| 2026-04-21 11:52 | 51.55575 | 17.49027 | 37231 ft | 464 kts | 178° |
| 2026-04-21 11:52 | 51.49139 | 17.49166 | 37232 ft | 464 kts | 178° |
| 2026-04-21 11:53 | 51.42664 | 17.49305 | 37229 ft | 465 kts | 178° |
| 2026-04-21 11:53 | 51.36211 | 17.49440 | 37224 ft | 465 kts | 178° |
| 2026-04-21 11:54 | 51.29722 | 17.49579 | 37220 ft | 465 kts | 178° |
| 2026-04-21 11:54 | 51.23237 | 17.49717 | 37216 ft | 465 kts | 178° |
| 2026-04-21 11:55 | 51.16797 | 17.49854 | 37209 ft | 465 kts | 178° |
| 2026-04-21 11:55 | 51.10312 | 17.49975 | 37209 ft | 465 kts | 178° |
| 2026-04-21 11:56 | 51.03872 | 17.50112 | 37200 ft | 465 kts | 178° |
| 2026-04-21 11:56 | 50.97377 | 17.50253 | 37199 ft | 466 kts | 179° |
| 2026-04-21 11:57 | 50.90893 | 17.50389 | 37195 ft | 466 kts | 179° |
| 2026-04-21 11:57 | 50.84441 | 17.50509 | 37190 ft | 466 kts | 179° |
| 2026-04-21 11:58 | 50.77942 | 17.50643 | 37190 ft | 466 kts | 179° |
| 2026-04-21 11:58 | 50.71475 | 17.50788 | 37187 ft | 466 kts | 179° |
| 2026-04-21 11:59 | 50.64992 | 17.50931 | 37183 ft | 466 kts | 179° |
| 2026-04-21 11:59 | 50.59563 | 17.51041 | 37182 ft | 466 kts | 179° |
| 2026-04-21 12:00 | 50.53058 | 17.51157 | 37179 ft | 466 kts | 179° |
| 2026-04-21 12:00 | 50.45514 | 17.51313 | 37173 ft | 467 kts | 179° |
| 2026-04-21 12:01 | 50.40086 | 17.51430 | 37168 ft | 467 kts | 179° |
| 2026-04-21 12:01 | 50.33562 | 17.51564 | 37159 ft | 467 kts | 180° |
| 2026-04-21 12:02 | 50.23987 | 17.49805 | 37153 ft | 464 kts | 201° |
| 2026-04-21 12:03 | 50.18007 | 17.46061 | 37153 ft | 464 kts | 203° |
| 2026-04-21 12:03 | 50.11982 | 17.42334 | 37152 ft | 464 kts | 203° |
| 2026-04-21 12:04 | 50.06015 | 17.38669 | 37148 ft | 464 kts | 203° |
| 2026-04-21 12:04 | 49.99984 | 17.34958 | 37151 ft | 464 kts | 204° |
| 2026-04-21 12:05 | 49.93972 | 17.31259 | 37150 ft | 464 kts | 203° |
| 2026-04-21 12:05 | 49.88009 | 17.27597 | 37147 ft | 463 kts | 204° |
| 2026-04-21 12:06 | 49.81998 | 17.23917 | 37147 ft | 463 kts | 204° |
| 2026-04-21 12:06 | 49.75981 | 17.20256 | 37149 ft | 463 kts | 203° |
| 2026-04-21 12:07 | 49.70026 | 17.16637 | 37147 ft | 462 kts | 203° |
| 2026-04-21 12:07 | 49.64030 | 17.13003 | 37141 ft | 462 kts | 204° |
| 2026-04-21 12:07 | 49.61058 | 17.11201 | 36999 ft | 462 kts | 204° |
| 2026-04-21 12:08 | 49.58055 | 17.09380 | 35917 ft | 469 kts | 204° |
| 2026-04-21 12:08 | 49.54985 | 17.07515 | 34843 ft | 475 kts | 203° |
| 2026-04-21 12:08 | 49.51907 | 17.05653 | 33825 ft | 476 kts | 203° |
| 2026-04-21 12:08 | 49.48810 | 17.03787 | 32703 ft | 477 kts | 203° |
| 2026-04-21 12:09 | 49.45734 | 17.01942 | 31843 ft | 472 kts | 203° |
| 2026-04-21 12:09 | 49.42678 | 17.00111 | 30992 ft | 468 kts | 203° |
| 2026-04-21 12:09 | 49.39677 | 16.98313 | 30270 ft | 462 kts | 204° |
| 2026-04-21 12:09 | 49.36722 | 16.96545 | 29477 ft | 456 kts | 204° |
| 2026-04-21 12:10 | 49.33781 | 16.94785 | 28721 ft | 449 kts | 204° |
| 2026-04-21 12:10 | 49.30888 | 16.93055 | 28006 ft | 443 kts | 204° |
| 2026-04-21 12:10 | 49.28009 | 16.91337 | 27367 ft | 436 kts | 204° |
| 2026-04-21 12:10 | 49.25199 | 16.89663 | 26765 ft | 430 kts | 204° |
| 2026-04-21 12:11 | 49.22488 | 16.88050 | 26188 ft | 424 kts | 204° |
| 2026-04-21 12:11 | 49.19752 | 16.86425 | 25616 ft | 418 kts | 204° |
| 2026-04-21 12:11 | 49.17044 | 16.84817 | 25061 ft | 412 kts | 204° |
| 2026-04-21 12:11 | 49.14390 | 16.83240 | 24522 ft | 407 kts | 204° |
| 2026-04-21 12:12 | 49.11779 | 16.81687 | 24043 ft | 402 kts | 204° |
| 2026-04-21 12:12 | 49.09181 | 16.80150 | 23459 ft | 399 kts | 204° |
| 2026-04-21 12:12 | 49.06606 | 16.78629 | 22955 ft | 393 kts | 204° |
| 2026-04-21 12:12 | 49.04077 | 16.77139 | 22459 ft | 388 kts | 204° |
| 2026-04-21 12:13 | 49.01562 | 16.75658 | 21963 ft | 384 kts | 204° |
| 2026-04-21 12:13 | 48.99088 | 16.74202 | 21465 ft | 381 kts | 203° |
| 2026-04-21 12:13 | 48.96622 | 16.72754 | 20974 ft | 377 kts | 204° |
| 2026-04-21 12:13 | 48.94184 | 16.71318 | 20466 ft | 374 kts | 204° |
| 2026-04-21 12:14 | 48.91776 | 16.69898 | 19964 ft | 372 kts | 203° |
| 2026-04-21 12:14 | 48.89365 | 16.68478 | 19443 ft | 370 kts | 203° |
| 2026-04-21 12:14 | 48.86972 | 16.67073 | 18936 ft | 368 kts | 203° |
| 2026-04-21 12:14 | 48.84591 | 16.65677 | 18403 ft | 367 kts | 202° |
| 2026-04-21 12:15 | 48.82203 | 16.64277 | 17867 ft | 366 kts | 202° |
| 2026-04-21 12:15 | 48.79755 | 16.63166 | 17355 ft | 364 kts | 192° |
| 2026-04-21 12:15 | 48.77255 | 16.62845 | 16866 ft | 362 kts | 179° |
| 2026-04-21 12:15 | 48.74789 | 16.63301 | 16458 ft | 359 kts | 168° |
| 2026-04-21 12:16 | 48.72334 | 16.64128 | 16024 ft | 356 kts | 167° |
| 2026-04-21 12:16 | 48.69941 | 16.64924 | 15606 ft | 354 kts | 168° |
| 2026-04-21 12:16 | 48.67539 | 16.65713 | 15187 ft | 352 kts | 168° |
| 2026-04-21 12:16 | 48.65150 | 16.66495 | 14761 ft | 349 kts | 167° |
| 2026-04-21 12:17 | 48.62779 | 16.67266 | 14342 ft | 347 kts | 167° |
| 2026-04-21 12:17 | 48.60444 | 16.68025 | 14111 ft | 345 kts | 167° |
| 2026-04-21 12:17 | 48.58088 | 16.68751 | 14110 ft | 345 kts | 171° |
| 2026-04-21 12:17 | 48.55698 | 16.68932 | 14118 ft | 344 kts | 182° |
| 2026-04-21 12:18 | 48.53297 | 16.68806 | 14119 ft | 344 kts | 182° |
| 2026-04-21 12:18 | 48.50911 | 16.68685 | 13500 ft | 340 kts | 182° |
| 2026-04-21 12:18 | 48.48524 | 16.68567 | 12101 ft | 349 kts | 182° |
| 2026-04-21 12:18 | 48.46099 | 16.68453 | 11282 ft | 341 kts | 181° |
| 2026-04-21 12:19 | 48.43764 | 16.68345 | 11015 ft | 333 kts | 181° |
| 2026-04-21 12:19 | 48.41469 | 16.68236 | 10646 ft | 331 kts | 182° |
| 2026-04-21 12:19 | 48.39188 | 16.68127 | 10400 ft | 322 kts | 181° |
| 2026-04-21 12:19 | 48.36991 | 16.68022 | 10253 ft | 309 kts | 182° |
| 2026-04-21 12:20 | 48.34879 | 16.67917 | 10040 ft | 301 kts | 182° |
| 2026-04-21 12:20 | 48.32791 | 16.67812 | 9863 ft | 299 kts | 181° |
| 2026-04-21 12:20 | 48.30726 | 16.67712 | 9427 ft | 300 kts | 181° |
| 2026-04-21 12:20 | 48.28644 | 16.67612 | 9031 ft | 297 kts | 181° |
| 2026-04-21 12:21 | 48.26586 | 16.67512 | 8642 ft | 294 kts | 181° |
| 2026-04-21 12:21 | 48.24562 | 16.67413 | 8266 ft | 292 kts | 181° |
| 2026-04-21 12:21 | 48.22541 | 16.67315 | 7969 ft | 290 kts | 181° |
| 2026-04-21 12:21 | 48.20516 | 16.67219 | 7519 ft | 291 kts | 181° |
| 2026-04-21 12:22 | 48.18483 | 16.67123 | 7142 ft | 288 kts | 181° |
| 2026-04-21 12:22 | 48.16493 | 16.67031 | 6767 ft | 287 kts | 181° |
| 2026-04-21 12:22 | 48.14489 | 16.66936 | 6385 ft | 285 kts | 181° |
| 2026-04-21 12:22 | 48.12540 | 16.66842 | 6009 ft | 283 kts | 181° |
| 2026-04-21 12:23 | 48.10576 | 16.66749 | 5697 ft | 279 kts | 181° |
| 2026-04-21 12:23 | 48.08677 | 16.66658 | 5564 ft | 266 kts | 181° |
| 2026-04-21 12:23 | 48.06858 | 16.66570 | 5346 ft | 258 kts | 181° |
| 2026-04-21 12:23 | 48.05069 | 16.66481 | 5041 ft | 256 kts | 182° |
| 2026-04-21 12:24 | 48.03310 | 16.66395 | 4661 ft | 255 kts | 181° |
| 2026-04-21 12:24 | 48.01513 | 16.66310 | 4268 ft | 254 kts | 182° |
| 2026-04-21 12:24 | 47.99774 | 16.66230 | 4114 ft | 246 kts | 182° |
| 2026-04-21 12:24 | 47.98106 | 16.66155 | 3996 ft | 240 kts | 182° |
| 2026-04-21 12:25 | 47.96462 | 16.66045 | 3996 ft | 229 kts | 189° |
| 2026-04-21 12:25 | 47.95101 | 16.65053 | 3897 ft | 213 kts | 233° |
| 2026-04-21 12:25 | 47.94583 | 16.63165 | 3488 ft | 197 kts | 276° |
| 2026-04-21 12:25 | 47.95147 | 16.61438 | 3173 ft | 183 kts | 325° |
| 2026-04-21 12:26 | 47.96317 | 16.61077 | 3033 ft | 177 kts | 13° |
| 2026-04-21 12:26 | 47.97485 | 16.61676 | 2872 ft | 180 kts | 12° |
| 2026-04-21 12:26 | 47.98704 | 16.62146 | 2681 ft | 181 kts | 12° |
| 2026-04-21 12:26 | 47.99918 | 16.62415 | 2476 ft | 171 kts | 359° |
| 2026-04-21 12:27 | 48.01021 | 16.62247 | 2280 ft | 147 kts | 349° |
| 2026-04-21 12:27 | 48.01950 | 16.61956 | 2094 ft | 132 kts | 346° |
| 2026-04-21 12:27 | 48.02828 | 16.61632 | 1922 ft | 127 kts | 345° |
| 2026-04-21 12:27 | 48.03676 | 16.61297 | 1756 ft | 125 kts | 344° |
| 2026-04-21 12:28 | 48.04504 | 16.60960 | 1563 ft | 125 kts | 344° |
| 2026-04-21 12:28 | 48.05342 | 16.60613 | 1389 ft | 124 kts | 344° |
| 2026-04-21 12:28 | 48.06177 | 16.60264 | 1197 ft | 125 kts | 344° |
| 2026-04-21 12:28 | 48.07012 | 16.59914 | 1019 ft | 124 kts | 343° |
| 2026-04-21 12:29 | 48.07846 | 16.59562 | 850 ft | 124 kts | 342° |
| 2026-04-21 12:29 | 48.08655 | 16.59222 | 684 ft | 123 kts | 342° |
| 2026-04-21 12:29 | 48.09436 | 16.58892 | 617 ft | 99 kts | 344° |
| 2026-04-21 12:29 | 48.09841 | 16.58714 | 616 ft | 22 kts | 344° |
| 2026-04-21 12:30 | 48.09958 | 16.58655 | 612 ft | 16 kts | 329° |
| 2026-04-21 12:30 | 48.10036 | 16.58552 | 616 ft | 10 kts | 308° |
| 2026-04-21 12:30 | 48.10072 | 16.58458 | 617 ft | 11 kts | 298° |
| 2026-04-21 12:30 | 48.10090 | 16.58408 | 612 ft | 5 kts | 298° |
| 2026-04-21 12:31 | 48.10113 | 16.58352 | 623 ft | 8 kts | 308° |
| 2026-04-21 12:31 | 48.10164 | 16.58307 | 621 ft | 10 kts | 342° |
| 2026-04-21 12:31 | 48.10236 | 16.58275 | 624 ft | 12 kts | 343° |
| 2026-04-21 12:31 | 48.10326 | 16.58235 | 613 ft | 15 kts | 344° |
| 2026-04-21 12:32 | 48.10431 | 16.58190 | 613 ft | 17 kts | 343° |
| 2026-04-21 12:32 | 48.10551 | 16.58141 | 614 ft | 19 kts | 345° |
| 2026-04-21 12:32 | 48.10683 | 16.58085 | 620 ft | 21 kts | 345° |
| 2026-04-21 12:32 | 48.10827 | 16.58024 | 617 ft | 22 kts | 343° |
| 2026-04-21 12:33 | 48.10969 | 16.57964 | 621 ft | 20 kts | 345° |
| 2026-04-21 12:33 | 48.11106 | 16.57906 | 617 ft | 21 kts | 343° |
| 2026-04-21 12:33 | 48.11254 | 16.57843 | 623 ft | 23 kts | 344° |
| 2026-04-21 12:33 | 48.11408 | 16.57778 | 614 ft | 24 kts | 344° |
| 2026-04-21 12:34 | 48.11572 | 16.57709 | 614 ft | 24 kts | 344° |
| 2026-04-21 12:34 | 48.11695 | 16.57647 | 610 ft | 14 kts | 326° |
| 2026-04-21 12:34 | 48.11711 | 16.57550 | 610 ft | 10 kts | 281° |
| 2026-04-21 12:34 | 48.11771 | 16.57485 | 618 ft | 12 kts | 346° |
| 2026-04-21 12:35 | 48.11810 | 16.57405 | 610 ft | 7 kts | 266° |
| 2026-04-21 12:35 | 48.11819 | 16.57326 | 618 ft | 9 kts | 295° |
| 2026-04-21 12:35 | 48.11850 | 16.57228 | 615 ft | 11 kts | 298° |
| 2026-04-21 12:35 | 48.11903 | 16.57131 | 612 ft | 13 kts | 295° |
| 2026-04-21 12:36 | 48.11910 | 16.57076 | 614 ft | 3 kts | 304° |
| 2026-04-21 12:36 | 48.11929 | 16.57039 | 619 ft | 6 kts | 307° |
| 2026-04-21 12:36 | 48.11951 | 16.56982 | 619 ft | 0 kts | 297° |
| 2026-04-21 12:36 | 48.11966 | 16.56973 | 624 ft | 5 kts | 345° |
| 2026-04-21 12:37 | 48.12011 | 16.56986 | 615 ft | 8 kts | 23° |
| 2026-04-21 12:37 | 48.12017 | 16.56991 | 623 ft | 0 kts | 26° |